Map

Track Data

SID SEASON NUMBER BASIN SUBBASIN NAME ISO_TIME NATURE LAT LON WMO_WIND WMO_PRES WMO_AGENCY TRACK_TYPE DIST2LAND LANDFALL IFLAG USA_AGENCY USA_ATCF_ID USA_LAT USA_LON USA_RECORD USA_STATUS USA_WIND USA_PRES USA_SSHS USA_R34_NE USA_R34_SE USA_R34_SW USA_R34_NW USA_R50_NE USA_R50_SE USA_R50_SW USA_R50_NW USA_R64_NE USA_R64_SE USA_R64_SW USA_R64_NW USA_POCI USA_ROCI USA_RMW USA_EYE TOKYO_LAT TOKYO_LON TOKYO_GRADE TOKYO_WIND TOKYO_PRES TOKYO_R50_DIR TOKYO_R50_LONG TOKYO_R50_SHORT TOKYO_R30_DIR TOKYO_R30_LONG TOKYO_R30_SHORT TOKYO_LAND CMA_LAT CMA_LON CMA_CAT CMA_WIND CMA_PRES HKO_LAT HKO_LON HKO_CAT HKO_WIND HKO_PRES NEWDELHI_LAT NEWDELHI_LON NEWDELHI_GRADE NEWDELHI_WIND NEWDELHI_PRES NEWDELHI_CI NEWDELHI_DP NEWDELHI_POCI REUNION_LAT REUNION_LON REUNION_TYPE REUNION_WIND REUNION_PRES REUNION_TNUM REUNION_CI REUNION_RMW REUNION_R34_NE REUNION_R34_SE REUNION_R34_SW REUNION_R34_NW REUNION_R50_NE REUNION_R50_SE REUNION_R50_SW REUNION_R50_NW REUNION_R64_NE REUNION_R64_SE REUNION_R64_SW REUNION_R64_NW BOM_LAT BOM_LON BOM_TYPE BOM_WIND BOM_PRES BOM_TNUM BOM_CI BOM_RMW BOM_R34_NE BOM_R34_SE BOM_R34_SW BOM_R34_NW BOM_R50_NE BOM_R50_SE BOM_R50_SW BOM_R50_NW BOM_R64_NE BOM_R64_SE BOM_R64_SW BOM_R64_NW BOM_ROCI BOM_POCI BOM_EYE BOM_POS_METHOD BOM_PRES_METHOD NADI_LAT NADI_LON NADI_CAT NADI_WIND NADI_PRES WELLINGTON_LAT WELLINGTON_LON WELLINGTON_WIND WELLINGTON_PRES DS824_LAT DS824_LON DS824_STAGE DS824_WIND DS824_PRES TD9636_LAT TD9636_LON TD9636_STAGE TD9636_WIND TD9636_PRES TD9635_LAT TD9635_LON TD9635_WIND TD9635_PRES TD9635_ROCI NEUMANN_LAT NEUMANN_LON NEUMANN_CLASS NEUMANN_WIND NEUMANN_PRES MLC_LAT MLC_LON MLC_CLASS MLC_WIND MLC_PRES USA_GUST BOM_GUST BOM_GUST_PER REUNION_GUST REUNION_GUST_PER USA_SEAHGT USA_SEARAD_NE USA_SEARAD_SE USA_SEARAD_SW USA_SEARAD_NW STORM_SPEED STORM_DIR
1974195N12261 1974 57 EP MM FRANCESCA 1974-07-14 00:00:00 TS 11.5000 -99.0000 25 hurdat_epa main 520 515 O________OO___ hurdat_epa EP061974 11.5000 -99.0000 TD 25 -1 11.5000 -99.0000 TC 25 11.5000 -99.0000 1 30 6 289
1974195N12261 1974 57 EP MM FRANCESCA 1974-07-14 03:00:00 TS 11.5992 -99.2885 main 518 511 P________PP___ EP061974 11.5900 -99.2650 TD 27 -1 11.5900 -99.2650 TC 27 11.6364 -99.3823 1 30 7 289
1974195N12261 1974 57 EP MM FRANCESCA 1974-07-14 06:00:00 TS 11.7136 -99.6324 30 hurdat_epa main 519 517 O________OP___ hurdat_epa EP061974 11.7000 -99.6000 TD 30 -1 11.7000 -99.6000 TC 30 11.7681 -99.7619 1 30 8 288
1974195N12261 1974 57 EP MM FRANCESCA 1974-07-14 09:00:00 TS 11.8522 -100.061 main 518 518 P________PP___ EP061974 11.8426 -100.042 TD 30 -1 11.8426 -100.042 TC 30 11.8907 -100.135 1 30 9 289
1974195N12261 1974 57 EP MM FRANCESCA 1974-07-14 12:00:00 TS 12.0000 -100.500 30 hurdat_epa main 523 517 O________OO___ hurdat_epa EP061974 12.0000 -100.500 TD 30 -1 12.0000 -100.500 TC 30 12.0000 -100.500 1 30 8 291
1974195N12261 1974 57 EP MM FRANCESCA 1974-07-14 15:00:00 TS 12.1451 -100.857 main 530 515 P________PP___ EP061974 12.1574 -100.858 TD 30 -1 12.1574 -100.858 TC 30 12.0962 -100.855 1 30 7 292
1974195N12261 1974 57 EP MM FRANCESCA 1974-07-14 18:00:00 TS 12.2794 -101.203 30 hurdat_epa main 518 518 O________OP___ hurdat_epa EP061974 12.3000 -101.200 TD 30 -1 12.3000 -101.200 TC 30 12.1970 -101.213 1 30 7 288
1974195N12261 1974 57 EP MM FRANCESCA 1974-07-14 21:00:00 TS 12.3728 -101.580 main 523 523 P________PP___ EP061974 12.3849 -101.578 TD 30 -1 12.3849 -101.578 TC 30 12.3243 -101.590 1 30 8 286
1974195N12261 1974 57 EP MM FRANCESCA 1974-07-15 00:00:00 TS 12.5000 -102.000 30 hurdat_epa main 531 526 O________OO___ hurdat_epa EP061974 12.5000 -102.000 TD 30 -1 12.5000 -102.000 TC 30 12.5000 -102.000 1 30 9 291
1974195N12261 1974 57 EP MM FRANCESCA 1974-07-15 03:00:00 TS 12.7191 -102.482 main 535 518 P________PP___ EP061974 12.7125 -102.485 TD 30 -1 12.7125 -102.485 TC 30 12.7457 -102.468 1 30 11 298
1974195N12261 1974 57 EP MM FRANCESCA 1974-07-15 06:00:00 TS 13.0080 -102.994 30 hurdat_epa main 522 511 O________OP___ hurdat_epa EP061974 13.0000 -103.000 TD 30 -1 13.0000 -103.000 TC 30 13.0401 -102.970 1 30 12 302
1974195N12261 1974 57 EP MM FRANCESCA 1974-07-15 09:00:00 TS 13.3468 -103.497 main 516 500 P________PP___ EP061974 13.3424 -103.500 TD 30 -1 13.3424 -103.500 TC 30 13.3644 -103.487 1 30 12 305
1974195N12261 1974 57 EP MM FRANCESCA 1974-07-15 12:00:00 TS 13.7000 -104.000 30 hurdat_epa main 504 486 O________OO___ hurdat_epa EP061974 13.7000 -104.000 TD 30 -1 13.7000 -104.000 TC 30 13.7000 -104.000 1 30 12 304
1974195N12261 1974 57 EP MM FRANCESCA 1974-07-15 15:00:00 TS 14.0027 -104.505 main 489 471 P________PP___ EP061974 13.9999 -104.508 TD 30 -1 13.9999 -104.508 TC 30 14.0136 -104.495 1 32 11 302
1974195N12261 1974 57 EP MM FRANCESCA 1974-07-15 18:00:00 TS 14.3070 -104.996 30 hurdat_epa main 475 461 O________OP___ hurdat_epa EP061974 14.3000 -105.000 TD 30 -1 14.3000 -105.000 TC 30 14.3348 -104.980 1 35 11 305
1974195N12261 1974 57 EP MM FRANCESCA 1974-07-15 21:00:00 TS 14.6466 -105.456 main 465 446 P________PP___ EP061974 14.6424 -105.458 TD 37 0 14.6424 -105.458 TC 37 14.6636 -105.451 1 37 11 308
1974195N12261 1974 57 EP MM FRANCESCA 1974-07-16 00:00:00 TS 15.0000 -105.900 45 hurdat_epa main 449 441 O________OO___ hurdat_epa EP061974 15.0000 -105.900 TS 45 0 15.0000 -105.900 TC 45 15.0000 -105.900 2 40 11 309
1974195N12261 1974 57 EP MM FRANCESCA 1974-07-16 03:00:00 TS 15.3477 -106.360 main 456 440 P________PP___ EP061974 15.3500 -106.365 TS 47 0 15.3500 -106.365 TC 47 15.3386 -106.342 2 42 11 309
1974195N12261 1974 57 EP MM FRANCESCA 1974-07-16 06:00:00 TS 15.6970 -106.792 50 hurdat_epa main 445 433 O________OP___ hurdat_epa EP061974 15.7000 -106.800 TS 50 0 15.7000 -106.800 TC 50 15.6848 -106.760 2 45 10 312
1974195N12261 1974 57 EP MM FRANCESCA 1974-07-16 09:00:00 TS 16.0476 -107.168 main 439 424 P________PP___ EP061974 16.0499 -107.173 TS 50 0 16.0499 -107.173 TC 50 16.0387 -107.148 2 47 10 316
1974195N12261 1974 57 EP MM FRANCESCA 1974-07-16 12:00:00 TS 16.4000 -107.500 50 hurdat_epa main 424 415 O________OO___ hurdat_epa EP061974 16.4000 -107.500 TS 50 0 16.4000 -107.500 TC 50 16.4000 -107.500 2 50 9 319
1974195N12261 1974 57 EP MM FRANCESCA 1974-07-16 15:00:00 TS 16.7499 -107.814 main 422 414 P________PP___ EP061974 16.7425 -107.815 TS 50 0 16.7425 -107.815 TC 50 16.7796 -107.811 2 51 9 321
1974195N12261 1974 57 EP MM FRANCESCA 1974-07-16 18:00:00 TS 17.1129 -108.098 50 hurdat_epa main 414 400 O________OP___ hurdat_epa EP061974 17.1000 -108.100 TS 50 0 17.1000 -108.100 TC 50 17.1645 -108.088 2 52 9 326
1974195N12261 1974 57 EP MM FRANCESCA 1974-07-16 21:00:00 TS 17.5144 -108.355 main 409 398 P________PP___ EP061974 17.5074 -108.358 TS 50 0 17.5074 -108.358 TC 50 17.5422 -108.346 2 53 9 329
1974195N12261 1974 57 EP MM FRANCESCA 1974-07-17 00:00:00 TS 17.9000 -108.600 50 hurdat_epa main 401 395 O________OO___ hurdat_epa EP061974 17.9000 -108.600 TS 50 0 17.9000 -108.600 TC 50 17.9000 -108.600 2 55 8 326
1974195N12261 1974 57 EP MM FRANCESCA 1974-07-17 03:00:00 TS 18.2105 -108.845 main 400 400 P________PP___ EP061974 18.2149 -108.843 TS 52 0 18.2149 -108.843 TC 52 18.1928 -108.856 2 56 8 321
1974195N12261 1974 57 EP MM FRANCESCA 1974-07-17 06:00:00 TS 18.4939 -109.103 55 hurdat_epa main 413 413 O________OP___ hurdat_epa EP061974 18.5000 -109.100 TS 55 0 18.5000 -109.100 TC 55 18.4695 -109.114 2 57 8 318
1974195N12261 1974 57 EP MM FRANCESCA 1974-07-17 09:00:00 TS 18.7742 -109.380 main 426 425 P________PP___ EP061974 18.7774 -109.378 TS 57 0 18.7774 -109.378 TC 57 18.7615 -109.390 2 58 8 317
1974195N12261 1974 57 EP MM FRANCESCA 1974-07-17 12:00:00 TS 19.1000 -109.700 60 hurdat_epa main 425 380 O________OO___ hurdat_epa EP061974 19.1000 -109.700 TS 60 0 19.1000 -109.700 TC 60 19.1000 -109.700 2 60 10 319
1974195N12261 1974 57 EP MM FRANCESCA 1974-07-17 15:00:00 TS 19.5242 -110.081 main 380 326 P________PP___ EP061974 19.5200 -110.085 TS 60 0 19.5200 -110.085 TC 60 19.5410 -110.064 2 60 12 320
1974195N12261 1974 57 EP MM FRANCESCA 1974-07-17 18:00:00 TS 20.0055 -110.492 60 986 hurdat_epa main 328 283 O________OP___ hurdat_epa EP061974 20.0000 -110.500 TS 60 986 0 20.0000 -110.500 TC 60 986 20.0276 -110.462 2 60 13 322
1974195N12261 1974 57 EP MM FRANCESCA 1974-07-17 21:00:00 TS 20.5110 -110.896 main 283 251 P________PP___ EP061974 20.5074 -110.900 TS 60 0 20.5074 -110.900 TC 60 20.5254 -110.879 2 60 13 323
1974195N12261 1974 57 EP MM FRANCESCA 1974-07-18 00:00:00 TS 21.0000 -111.300 60 hurdat_epa main 251 235 O________OO___ hurdat_epa EP061974 21.0000 -111.300 TS 60 0 21.0000 -111.300 TC 60 21.0000 -111.300 2 60 12 321
1974195N12261 1974 57 EP MM FRANCESCA 1974-07-18 03:00:00 TS 21.4273 -111.690 main 242 234 P________PP___ EP061974 21.4224 -111.700 TS 60 0 21.4224 -111.700 TC 60 21.4470 -111.648 2 60 11 318
1974195N12261 1974 57 EP MM FRANCESCA 1974-07-18 06:00:00 TS 21.8120 -112.081 60 hurdat_epa main 248 243 O________OP___ hurdat_epa EP061974 21.8000 -112.100 TS 60 0 21.8000 -112.100 TC 60 21.8602 -112.003 2 60 10 317
1974195N12261 1974 57 EP MM FRANCESCA 1974-07-18 09:00:00 TS 22.1873 -112.446 main 249 245 P________PP___ EP061974 22.1795 -112.455 TS 60 0 22.1795 -112.455 TC 60 22.2184 -112.407 2 60 10 312
1974195N12261 1974 57 EP MM FRANCESCA 1974-07-18 12:00:00 TS 22.5000 -112.900 60 hurdat_epa main 250 245 O________OO___ hurdat_epa EP061974 22.5000 -112.900 TS 60 0 22.5000 -112.900 TC 60 22.5000 -112.900 2 60 12 299
1974195N12261 1974 57 EP MM FRANCESCA 1974-07-18 15:00:00 TS 22.7444 -113.542 main 265 261 P________PP___ EP061974 22.7526 -113.547 TS 62 0 22.7526 -113.547 TC 62 22.7118 -113.519 2 61 13 287
1974195N12261 1974 57 EP MM FRANCESCA 1974-07-18 18:00:00 TS 22.8885 -114.286 65 990 hurdat_epa main 300 300 O________OP___ hurdat_epa EP061974 22.9000 -114.300 HU 65 990 1 22.9000 -114.300 TC 65 990 22.8427 -114.230 2 62 14 278
1974195N12261 1974 57 EP MM FRANCESCA 1974-07-18 21:00:00 TS 22.9301 -115.028 main 355 355 P________PP___ EP061974 22.9371 -115.035 HU 65 1 22.9371 -115.035 TC 65 22.9021 -115.000 2 63 14 270
1974195N12261 1974 57 EP MM FRANCESCA 1974-07-19 00:00:00 TS 22.9000 -115.800 65 hurdat_epa main 423 423 O________OO___ hurdat_epa EP061974 22.9000 -115.800 HU 65 1 22.9000 -115.800 TC 65 22.9000 -115.800 4 65 14 268
1974195N12261 1974 57 EP MM FRANCESCA 1974-07-19 03:00:00 TS 22.8672 -116.594 main 495 495 P________PP___ EP061974 22.8722 -116.592 HU 65 1 22.8722 -116.592 TC 65 22.8471 -116.603 4 62 15 266
1974195N12261 1974 57 EP MM FRANCESCA 1974-07-19 06:00:00 TS 22.7910 -117.401 65 hurdat_epa main 573 573 O________OP___ hurdat_epa EP061974 22.8000 -117.400 HU 65 1 22.8000 -117.400 TC 65 22.7549 -117.404 4 60 15 262
1974195N12261 1974 57 EP MM FRANCESCA 1974-07-19 09:00:00 TS 22.6616 -118.203 main 631 631 P________PP___ EP061974 22.6682 -118.203 HU 62 0 22.6682 -118.203 TC 62 22.6353 -118.203 4 57 15 259
1974195N12261 1974 57 EP MM FRANCESCA 1974-07-19 12:00:00 TS 22.5000 -119.000 60 hurdat_epa main 700 O________OO___ hurdat_epa EP061974 22.5000 -119.000 TS 60 0 22.5000 -119.000 TC 60 22.5000 -119.000 2 55 15 258

About IBTrACS Database

This database is a web-friendly format of International Best Track Archive for Climate Stewardship (IBTrACS), a global best track data archive curated by NOAA dating back to 1842.

Updated: 2021-10-21